createdAt,value
2022-11-28T00:01:33.518Z,3.22
2022-11-28T00:04:01.983Z,2.55
2022-11-28T00:06:30.578Z,2.88
2022-11-28T00:08:59.743Z,2.53
2022-11-28T00:11:27.779Z,2.67
2022-11-28T00:13:55.867Z,2.13
2022-11-28T00:16:24.693Z,3.05
2022-11-28T00:18:53.887Z,2.85
2022-11-28T00:21:22.763Z,2.00
2022-11-28T00:23:51.736Z,2.58
2022-11-28T00:26:23.680Z,2.15
2022-11-28T00:28:51.985Z,2.40
2022-11-28T00:31:27.356Z,2.40
2022-11-28T00:33:56.013Z,2.13
2022-11-28T00:36:24.613Z,2.60
2022-11-28T00:38:52.804Z,2.45
2022-11-28T00:41:25.331Z,2.10
2022-11-28T00:43:53.484Z,2.60
2022-11-28T00:46:22.820Z,2.35
2022-11-28T00:48:52.056Z,2.75
2022-11-28T00:51:25.916Z,2.58
2022-11-28T00:53:56.765Z,2.38
2022-11-28T00:56:26.958Z,2.95
2022-11-28T00:58:54.887Z,2.63
2022-11-28T01:01:28.912Z,2.60
2022-11-28T01:03:58.055Z,2.00
2022-11-28T01:06:32.194Z,2.28
2022-11-28T01:09:02.007Z,2.13
2022-11-28T01:11:30.603Z,2.63
2022-11-28T01:14:00.452Z,2.38
2022-11-28T01:16:29.563Z,2.42
2022-11-28T01:18:57.801Z,2.17
2022-11-28T01:21:25.913Z,2.25
2022-11-28T01:23:53.793Z,2.38
2022-11-28T01:26:27.361Z,2.25
2022-11-28T01:28:55.669Z,2.40
2022-11-28T01:31:26.698Z,2.45
2022-11-28T01:33:54.745Z,1.98
2022-11-28T01:36:22.992Z,1.80
2022-11-28T01:38:51.031Z,2.08
2022-11-28T01:41:22.606Z,2.05
2022-11-28T01:44:05.620Z,2.75
2022-11-28T01:46:33.979Z,2.38
2022-11-28T01:49:10.025Z,2.38
2022-11-28T01:51:38.931Z,1.92
2022-11-28T01:54:06.846Z,2.13
2022-11-28T01:56:49.813Z,2.15
2022-11-28T01:59:18.742Z,2.20
2022-11-28T02:01:47.268Z,2.38
2022-11-28T02:04:15.398Z,2.00
2022-11-28T02:06:43.511Z,2.00
2022-11-28T02:09:13.960Z,2.20
2022-11-28T02:12:07.378Z,2.25
2022-11-28T02:14:53.481Z,2.10
2022-11-28T02:18:07.286Z,2.67
2022-11-28T02:21:12.806Z,2.08
2022-11-28T02:24:05.166Z,1.90
2022-11-28T02:26:47.292Z,2.17
2022-11-28T02:29:42.766Z,2.15
2022-11-28T02:32:34.891Z,1.55
2022-11-28T02:35:23.754Z,1.98
2022-11-28T02:38:33.273Z,2.35
2022-11-28T02:41:44.041Z,2.17
2022-11-28T02:44:23.739Z,2.20
2022-11-28T02:47:02.065Z,1.88
2022-11-28T02:49:39.710Z,2.25
2022-11-28T02:52:20.708Z,2.20
2022-11-28T02:54:51.036Z,2.30
2022-11-28T02:57:19.114Z,1.90
2022-11-28T02:59:49.667Z,2.58
2022-11-28T03:02:25.227Z,2.10
2022-11-28T03:05:08.763Z,2.30
2022-11-28T03:08:01.412Z,2.30
2022-11-28T03:10:52.360Z,1.90
2022-11-28T03:14:07.610Z,1.80
2022-11-28T03:16:56.880Z,2.85
2022-11-28T03:19:35.183Z,2.00
2022-11-28T03:22:13.686Z,2.30
2022-11-28T03:24:53.648Z,2.00
2022-11-28T03:27:38.305Z,2.38
2022-11-28T03:30:33.351Z,2.47
2022-11-28T03:33:02.255Z,2.97
2022-11-28T03:35:33.680Z,2.65
2022-11-28T03:38:05.340Z,2.17
2022-11-28T03:40:40.361Z,2.60
2022-11-28T03:43:14.034Z,2.60
2022-11-28T03:45:54.889Z,2.67
2022-11-28T03:48:26.802Z,2.00
2022-11-28T03:51:07.633Z,2.20
2022-11-28T03:53:50.794Z,2.58
2022-11-28T03:56:41.270Z,2.45
2022-11-28T03:59:14.001Z,2.25
2022-11-28T04:02:00.276Z,2.40
2022-11-28T04:04:43.747Z,2.08
2022-11-28T04:07:24.032Z,2.63
2022-11-28T04:10:04.008Z,2.17
2022-11-28T04:13:06.483Z,2.70
2022-11-28T04:15:42.435Z,2.25
2022-11-28T04:18:40.693Z,2.45
2022-11-28T04:21:11.694Z,2.60
2022-11-28T04:23:41.576Z,2.50
2022-11-28T04:26:25.128Z,2.30
2022-11-28T04:28:54.140Z,2.88
2022-11-28T04:31:25.888Z,2.25
2022-11-28T04:33:58.844Z,2.90
2022-11-28T04:36:28.179Z,2.30
2022-11-28T04:38:57.616Z,2.08
2022-11-28T04:41:38.028Z,2.60
2022-11-28T04:44:29.007Z,2.00
2022-11-28T04:46:58.538Z,2.13
2022-11-28T04:49:28.208Z,2.58
2022-11-28T04:52:08.169Z,2.67
2022-11-28T04:54:57.477Z,2.28
2022-11-28T04:57:51.686Z,1.92
2022-11-28T05:00:22.533Z,1.83
2022-11-28T05:02:52.229Z,2.03
2022-11-28T05:05:24.567Z,2.08
2022-11-28T05:07:53.575Z,1.85
2022-11-28T05:10:21.700Z,1.48
2022-11-28T05:12:51.672Z,2.20
2022-11-28T05:15:19.423Z,2.10
2022-11-28T05:17:47.850Z,2.65
2022-11-28T05:20:15.767Z,4.25
2022-11-28T05:22:43.607Z,3.05
2022-11-28T05:25:11.541Z,3.33
2022-11-28T05:27:39.477Z,3.47
2022-11-28T05:30:12.189Z,3.28
2022-11-28T05:32:39.852Z,2.65
2022-11-28T05:35:08.180Z,3.03
2022-11-28T05:37:36.084Z,3.30
2022-11-28T05:40:04.538Z,3.03
2022-11-28T05:42:36.096Z,2.85
2022-11-28T05:45:05.468Z,3.28
2022-11-28T05:47:34.371Z,3.33
2022-11-28T05:50:02.174Z,3.33
2022-11-28T05:52:32.574Z,3.55
2022-11-28T05:55:01.738Z,2.80
2022-11-28T05:57:30.246Z,3.55
2022-11-28T05:59:58.629Z,4.75
2022-11-28T06:02:26.802Z,3.65
2022-11-28T06:04:54.874Z,3.38
2022-11-28T06:07:22.867Z,3.17
2022-11-28T06:09:50.656Z,3.58
2022-11-28T06:12:18.626Z,3.58
2022-11-28T06:14:46.616Z,3.45
2022-11-28T06:17:14.547Z,3.95
2022-11-28T06:19:42.723Z,4.10
2022-11-28T06:22:10.885Z,3.42
2022-11-28T06:24:39.092Z,3.80
2022-11-28T06:27:07.035Z,3.70
2022-11-28T06:29:34.877Z,3.72
2022-11-28T06:32:02.799Z,4.07
2022-11-28T06:34:30.717Z,3.47
2022-11-28T06:36:58.729Z,3.28
2022-11-28T06:39:26.557Z,3.50
2022-11-28T06:41:54.313Z,2.85
2022-11-28T06:44:22.156Z,3.42
2022-11-28T06:46:49.999Z,3.28
2022-11-28T06:49:17.812Z,3.25
2022-11-28T06:51:46.303Z,4.50
2022-11-28T06:54:14.406Z,3.17
2022-11-28T06:56:42.675Z,3.75
2022-11-28T06:59:12.890Z,3.53
2022-11-28T07:01:40.815Z,3.83
2022-11-28T07:04:09.539Z,4.32
2022-11-28T07:06:37.618Z,3.75
2022-11-28T07:09:05.608Z,4.72
2022-11-28T07:11:33.426Z,4.45
2022-11-28T07:14:02.656Z,2.97
2022-11-28T07:16:34.160Z,3.75
2022-11-28T07:19:02.293Z,3.08
2022-11-28T07:21:30.966Z,4.13
2022-11-28T07:24:00.070Z,3.53
2022-11-28T07:26:27.860Z,3.67
2022-11-28T07:28:58.575Z,7.97
2022-11-28T07:31:29.032Z,9.25
2022-11-28T07:33:56.801Z,9.60
2022-11-28T07:36:26.764Z,9.98
2022-11-28T07:38:57.173Z,10.18
2022-11-28T07:41:26.925Z,10.30
2022-11-28T07:43:57.553Z,10.15
2022-11-28T07:46:26.048Z,9.65
2022-11-28T07:48:53.961Z,12.15
2022-11-28T07:51:27.697Z,9.73
2022-11-28T07:53:55.930Z,9.27
2022-11-28T07:56:31.922Z,9.77
2022-11-28T07:59:07.673Z,9.23
2022-11-28T08:01:36.576Z,9.27
2022-11-28T08:04:06.612Z,8.95
2022-11-28T08:06:38.177Z,8.43
2022-11-28T08:09:07.461Z,8.52
2022-11-28T08:11:36.124Z,8.73
2022-11-28T08:14:04.553Z,9.30
2022-11-28T08:16:33.053Z,7.85
2022-11-28T08:19:02.514Z,8.20
2022-11-28T08:21:32.864Z,7.70
2022-11-28T08:24:03.320Z,5.85
2022-11-28T08:26:32.396Z,5.30
2022-11-28T08:29:01.879Z,6.68
2022-11-28T08:31:35.616Z,5.57
2022-11-28T08:34:06.703Z,5.18
2022-11-28T08:36:34.806Z,5.45
2022-11-28T08:39:22.734Z,5.40
2022-11-28T08:41:51.726Z,5.15
2022-11-28T08:44:20.838Z,4.78
2022-11-28T08:46:48.899Z,5.15
2022-11-28T08:49:16.909Z,4.38
2022-11-28T08:51:45.122Z,4.65
2022-11-28T08:54:13.521Z,3.85
2022-11-28T08:56:41.367Z,4.45
2022-11-28T08:59:09.939Z,3.65
2022-11-28T09:01:37.837Z,3.92
2022-11-28T09:04:06.075Z,4.35
2022-11-28T09:06:40.364Z,4.20
2022-11-28T09:09:09.377Z,4.28
2022-11-28T09:11:37.806Z,3.33
2022-11-28T09:14:05.747Z,2.97
2022-11-28T09:16:33.583Z,4.30
2022-11-28T09:19:01.411Z,3.60
2022-11-28T09:21:29.372Z,3.63
2022-11-28T09:23:57.360Z,3.40
2022-11-28T09:26:26.192Z,3.40
2022-11-28T09:28:54.167Z,3.03
2022-11-28T09:31:22.041Z,2.90
2022-11-28T09:33:50.230Z,3.28
2022-11-28T09:36:21.596Z,4.07
2022-11-28T09:38:50.305Z,3.25
2022-11-28T09:41:41.071Z,3.25
2022-11-28T09:44:26.305Z,3.13
2022-11-28T09:46:58.800Z,3.60
2022-11-28T09:49:36.803Z,2.65
2022-11-28T09:52:54.612Z,3.65
2022-11-28T09:55:25.351Z,3.13
2022-11-28T09:57:53.983Z,3.15
2022-11-28T10:00:25.040Z,2.45
2022-11-28T10:03:06.759Z,4.38
2022-11-28T10:05:46.945Z,2.70
2022-11-28T10:08:43.947Z,2.42
2022-11-28T10:11:30.249Z,2.45
2022-11-28T10:14:35.113Z,3.00
2022-11-28T10:17:20.147Z,3.05
2022-11-28T10:19:56.054Z,3.05
2022-11-28T10:22:59.222Z,2.08
2022-11-28T10:25:39.434Z,3.00
2022-11-28T10:28:34.852Z,2.70
2022-11-28T10:31:30.423Z,2.40
2022-11-28T10:34:25.436Z,3.08
2022-11-28T10:37:05.967Z,3.20
2022-11-28T10:39:36.416Z,2.92
2022-11-28T10:42:34.978Z,2.92
2022-11-28T10:45:13.385Z,2.50
2022-11-28T10:48:39.020Z,2.55
2022-11-28T10:51:40.203Z,3.08
2022-11-28T10:54:26.160Z,2.53
2022-11-28T10:57:01.262Z,2.80
2022-11-28T11:00:06.836Z,2.78
2022-11-28T11:02:57.673Z,2.65
2022-11-28T11:05:34.035Z,2.47
2022-11-28T11:08:17.589Z,2.50
2022-11-28T11:11:02.355Z,3.08
2022-11-28T11:13:34.477Z,2.83
2022-11-28T11:16:08.695Z,2.83
2022-11-28T11:18:50.873Z,2.57
2022-11-28T11:21:28.003Z,3.85
2022-11-28T11:24:18.532Z,2.95
2022-11-28T11:26:48.688Z,2.83
2022-11-28T11:29:30.443Z,3.17
2022-11-28T11:32:04.332Z,3.60
2022-11-28T11:34:37.715Z,3.03
2022-11-28T11:37:34.373Z,3.38
2022-11-28T11:40:10.220Z,3.85
2022-11-28T11:42:37.987Z,3.83
2022-11-28T11:45:41.197Z,3.78
2022-11-28T11:48:14.013Z,4.00
2022-11-28T11:50:54.858Z,3.45
2022-11-28T11:53:22.903Z,3.95
2022-11-28T11:55:53.655Z,4.15
2022-11-28T11:58:24.289Z,3.78
2022-11-28T12:00:57.378Z,3.53
2022-11-28T12:03:35.594Z,4.28
2022-11-28T12:06:23.592Z,4.30
2022-11-28T12:08:52.252Z,5.32
2022-11-28T12:11:30.086Z,4.47
2022-11-28T12:14:23.943Z,3.83
2022-11-28T12:16:57.082Z,4.80
2022-11-28T12:19:32.159Z,4.38
2022-11-28T12:22:16.953Z,4.13
2022-11-28T12:24:48.044Z,4.88
2022-11-28T12:27:31.539Z,4.15
2022-11-28T12:30:39.128Z,4.22
2022-11-28T12:33:40.782Z,4.85
2022-11-28T12:36:14.894Z,4.20
2022-11-28T12:39:04.784Z,4.53
2022-11-28T12:41:47.697Z,5.03
2022-11-28T12:44:36.623Z,4.13
2022-11-28T12:47:13.376Z,3.63
2022-11-28T12:49:54.428Z,4.15
2022-11-28T12:52:48.619Z,3.95
2022-11-28T12:55:49.629Z,4.45
2022-11-28T12:58:44.131Z,3.80
2022-11-28T13:01:44.995Z,3.65
2022-11-28T13:04:42.429Z,4.07
2022-11-28T13:07:29.439Z,4.72
2022-11-28T13:10:02.715Z,4.50
2022-11-28T13:12:48.738Z,3.58
2022-11-28T13:15:44.404Z,4.50
2022-11-28T13:21:11.259Z,3.05
2022-11-28T13:24:27.224Z,4.13
2022-11-28T13:27:12.482Z,3.88
2022-11-28T13:32:26.105Z,4.07
2022-11-28T13:34:54.674Z,3.50
2022-11-28T13:42:00.910Z,3.45
2022-11-28T13:44:29.097Z,4.10
2022-11-28T13:46:57.045Z,3.85
2022-11-28T13:49:29.929Z,3.80
2022-11-28T13:52:19.614Z,3.72
2022-11-28T13:54:50.631Z,3.28
2022-11-28T13:57:39.082Z,2.90
2022-11-28T14:00:23.349Z,3.35
2022-11-28T14:03:00.163Z,3.15
2022-11-28T14:05:32.415Z,3.45
2022-11-28T14:08:00.548Z,3.35
2022-11-28T14:10:51.981Z,3.40
2022-11-28T14:13:23.568Z,3.58
2022-11-28T14:16:18.953Z,3.35
2022-11-28T14:18:59.382Z,3.03
2022-11-28T14:21:57.490Z,2.33
2022-11-28T14:24:45.053Z,3.03
2022-11-28T14:27:23.214Z,2.67
2022-11-28T14:29:53.683Z,3.08
2022-11-28T14:32:31.382Z,3.13
2022-11-28T14:35:00.948Z,2.75
2022-11-28T14:37:34.875Z,2.78
2022-11-28T14:40:03.946Z,3.28
2022-11-28T14:43:00.273Z,2.85
2022-11-28T14:45:43.611Z,3.30
2022-11-28T14:48:19.608Z,2.63
2022-11-28T14:50:56.209Z,2.92
2022-11-28T14:53:46.008Z,3.03
2022-11-28T14:56:34.766Z,3.30
2022-11-28T14:59:04.282Z,2.50
2022-11-28T15:01:51.313Z,2.97
2022-11-28T15:04:49.345Z,2.90
2022-11-28T15:07:44.966Z,3.45
2022-11-28T15:10:18.433Z,3.72
2022-11-28T15:13:04.130Z,3.60
2022-11-28T15:15:33.236Z,3.17
2022-11-28T15:18:03.194Z,2.88
2022-11-28T15:20:39.074Z,2.92
2022-11-28T15:23:16.989Z,3.75
2022-11-28T15:25:55.248Z,3.20
2022-11-28T15:28:28.406Z,3.88
2022-11-28T15:30:58.735Z,4.00
2022-11-28T15:33:28.117Z,3.25
2022-11-28T15:36:03.054Z,3.45
2022-11-28T15:38:32.426Z,3.63
2022-11-28T15:41:00.947Z,3.35
2022-11-28T15:43:31.642Z,3.25
2022-11-28T15:46:01.260Z,3.28
2022-11-28T15:48:40.124Z,3.20
2022-11-28T15:51:19.730Z,3.35
2022-11-28T15:53:47.907Z,3.40
2022-11-28T15:56:16.849Z,3.25
2022-11-28T15:58:45.636Z,3.20
2022-11-28T16:01:19.071Z,4.43
2022-11-28T16:03:52.411Z,3.15
2022-11-28T16:06:21.160Z,3.28
2022-11-28T16:08:53.360Z,3.33
2022-11-28T16:11:23.248Z,3.28
2022-11-28T16:13:52.282Z,3.13
2022-11-28T16:16:23.867Z,3.20
2022-11-28T16:19:28.208Z,3.67
2022-11-28T16:22:05.084Z,3.33
2022-11-28T16:24:43.529Z,3.30
2022-11-28T16:27:37.946Z,3.00
2022-11-28T16:30:25.598Z,4.20
2022-11-28T16:32:55.641Z,3.92
2022-11-28T16:35:40.533Z,4.15
2022-11-28T16:38:29.842Z,6.18
2022-11-28T16:41:01.640Z,6.32
2022-11-28T16:43:34.387Z,5.03
2022-11-28T16:46:04.211Z,5.38
2022-11-28T16:48:34.906Z,4.53
2022-11-28T16:51:11.849Z,5.85
2022-11-28T16:53:46.194Z,4.90
2022-11-28T16:56:33.360Z,4.43
2022-11-28T16:59:14.501Z,5.07
2022-11-28T17:01:43.462Z,4.30
2022-11-28T17:04:26.084Z,4.95
2022-11-28T17:06:58.506Z,5.15
2022-11-28T17:09:26.578Z,4.75
2022-11-28T17:12:05.115Z,4.75
2022-11-28T17:14:33.421Z,4.20
2022-11-28T17:17:01.596Z,5.68
2022-11-28T17:19:29.501Z,4.35
2022-11-28T17:21:59.181Z,3.70
2022-11-28T17:24:30.463Z,3.75
2022-11-28T17:26:58.414Z,3.95
2022-11-28T17:29:28.048Z,17.48
2022-11-28T17:31:59.031Z,10.05
2022-11-28T17:34:31.412Z,9.55
2022-11-28T17:37:00.938Z,9.23
2022-11-28T17:39:29.160Z,7.93
2022-11-28T17:41:57.838Z,9.60
2022-11-28T17:44:31.417Z,7.93
2022-11-28T17:47:01.486Z,12.80
2022-11-28T17:49:31.216Z,10.10
2022-11-28T17:51:59.729Z,8.10
2022-11-28T17:54:28.644Z,8.82
2022-11-28T17:56:56.715Z,8.75
2022-11-28T17:59:27.191Z,8.50
2022-11-28T18:01:55.418Z,8.07
2022-11-28T18:04:25.305Z,7.45
2022-11-28T18:06:53.590Z,8.27
2022-11-28T18:09:21.356Z,6.82
2022-11-28T18:11:49.163Z,6.93
2022-11-28T18:14:19.644Z,7.05
2022-11-28T18:16:48.427Z,7.00
2022-11-28T18:19:16.471Z,6.63
2022-11-28T18:21:44.952Z,6.32
2022-11-28T18:24:13.159Z,6.28
2022-11-28T18:26:42.212Z,6.50
2022-11-28T18:29:10.058Z,7.25
2022-11-28T18:31:38.821Z,6.70
2022-11-28T18:34:08.153Z,6.40
2022-11-28T18:36:37.778Z,6.60
2022-11-28T18:39:09.785Z,6.10
2022-11-28T18:41:37.996Z,6.47
2022-11-28T18:44:07.664Z,5.63
2022-11-28T18:46:35.677Z,6.47
2022-11-28T18:49:03.714Z,5.72
2022-11-28T18:51:35.726Z,6.13
2022-11-28T18:54:05.483Z,5.93
2022-11-28T18:56:35.318Z,5.63
2022-11-28T18:59:03.203Z,5.68
2022-11-28T19:01:33.584Z,5.82
2022-11-28T19:04:06.019Z,5.93
2022-11-28T19:06:35.837Z,5.40
2022-11-28T19:09:06.236Z,6.45
2022-11-28T19:11:34.680Z,5.88
2022-11-28T19:14:02.586Z,5.70
2022-11-28T19:16:35.441Z,5.45
2022-11-28T19:19:04.842Z,5.32
2022-11-28T19:21:35.463Z,5.22
2022-11-28T19:24:04.510Z,5.20
2022-11-28T19:26:34.300Z,5.40
2022-11-28T19:29:03.087Z,5.45
2022-11-28T19:31:36.371Z,4.93
2022-11-28T19:34:17.706Z,6.25
2022-11-28T19:36:48.719Z,5.53
2022-11-28T19:39:26.785Z,5.45
2022-11-28T19:41:55.685Z,4.63
2022-11-28T19:44:24.904Z,4.70
2022-11-28T19:46:54.004Z,4.72
2022-11-28T19:49:24.292Z,5.07
2022-11-28T19:51:52.411Z,5.53
2022-11-28T19:54:22.948Z,4.45
2022-11-28T19:56:52.536Z,4.85
2022-11-28T19:59:20.446Z,4.97
2022-11-28T20:01:50.143Z,5.22
2022-11-28T20:04:18.337Z,5.05
2022-11-28T20:06:46.422Z,5.22
2022-11-28T20:09:14.726Z,4.25
2022-11-28T20:11:44.162Z,4.18
2022-11-28T20:14:15.098Z,4.50
2022-11-28T20:16:45.056Z,4.43
2022-11-28T20:19:15.126Z,4.95
2022-11-28T20:21:46.516Z,4.70
2022-11-28T20:24:15.712Z,4.40
2022-11-28T20:26:45.712Z,4.22
2022-11-28T20:29:16.066Z,4.28
2022-11-28T20:31:47.803Z,4.07
2022-11-28T20:34:19.679Z,4.00
2022-11-28T20:36:54.280Z,4.45
2022-11-28T20:39:22.056Z,3.75
2022-11-28T20:41:49.928Z,4.15
2022-11-28T20:44:19.000Z,3.85
2022-11-28T20:46:47.352Z,4.15
2022-11-28T20:49:15.527Z,3.97
2022-11-28T20:51:43.496Z,3.85
2022-11-28T20:54:13.374Z,3.92
2022-11-28T20:57:12.746Z,4.45
2022-11-28T20:59:31.091Z,3.70
2022-11-28T21:01:58.976Z,4.35
2022-11-28T21:04:26.767Z,3.65
2022-11-28T21:06:54.754Z,3.85
2022-11-28T21:09:23.012Z,3.53
2022-11-28T21:11:57.434Z,3.65
2022-11-28T21:16:53.458Z,3.70
2022-11-28T21:19:21.484Z,3.58
2022-11-28T21:21:49.246Z,3.47
2022-11-28T21:24:17.074Z,4.10
2022-11-28T21:26:49.742Z,3.83
2022-11-28T21:29:21.472Z,3.88
2022-11-28T21:31:49.461Z,3.92
2022-11-28T21:34:19.370Z,3.70
2022-11-28T21:36:47.606Z,3.55
2022-11-28T21:39:17.751Z,4.32
2022-11-28T21:41:45.901Z,4.72
2022-11-28T21:44:16.165Z,3.80
2022-11-28T21:46:43.980Z,4.13
2022-11-28T21:49:13.190Z,3.78
2022-11-28T21:51:41.791Z,4.20
2022-11-28T21:54:11.532Z,3.15
2022-11-28T21:56:39.466Z,3.45
2022-11-28T21:59:07.342Z,4.05
2022-11-28T22:01:35.360Z,4.20
2022-11-28T22:04:04.664Z,4.30
2022-11-28T22:06:33.050Z,4.68
2022-11-28T22:09:08.603Z,3.42
2022-11-28T22:11:50.985Z,3.75
2022-11-28T22:14:18.721Z,4.72
2022-11-28T22:16:47.222Z,4.30
2022-11-28T22:19:15.247Z,4.28
2022-11-28T22:21:52.291Z,3.97
2022-11-28T22:24:24.535Z,4.10
2022-11-28T22:26:54.062Z,4.50
2022-11-28T22:29:21.999Z,4.80
2022-11-28T22:31:49.949Z,4.15
2022-11-28T22:34:18.719Z,4.20
2022-11-28T22:36:46.471Z,4.22
2022-11-28T22:39:15.146Z,3.88
2022-11-28T22:41:43.065Z,3.97
2022-11-28T22:44:11.831Z,3.83
2022-11-28T22:46:40.114Z,4.05
2022-11-28T22:49:10.998Z,4.03
2022-11-28T22:51:39.994Z,4.32
2022-11-28T22:54:10.531Z,4.28
2022-11-28T22:56:40.663Z,3.97
2022-11-28T22:59:13.093Z,3.60
2022-11-28T23:01:42.125Z,5.78
2022-11-28T23:04:11.356Z,7.25
2022-11-28T23:06:39.530Z,6.57
2022-11-28T23:09:08.722Z,7.43
2022-11-28T23:11:37.772Z,8.43
2022-11-28T23:14:06.624Z,6.82
2022-11-28T23:16:40.147Z,6.47
2022-11-28T23:19:12.698Z,6.73
2022-11-28T23:21:43.398Z,6.72
2022-11-28T23:24:16.783Z,6.47
2022-11-28T23:29:14.857Z,7.40
2022-11-28T23:31:44.147Z,7.22
2022-11-28T23:34:15.977Z,8.43
2022-11-28T23:36:49.007Z,8.80
2022-11-28T23:39:25.790Z,7.00
2022-11-28T23:42:03.954Z,7.00
2022-11-28T23:44:32.387Z,7.05
2022-11-28T23:47:00.229Z,7.07
2022-11-28T23:49:28.072Z,6.55
2022-11-28T23:51:56.343Z,6.65
2022-11-28T23:54:24.179Z,5.90
2022-11-28T23:56:52.029Z,6.28
2022-11-28T23:59:20.028Z,6.43
